This demonstration page uses our WeatherBlox Daily Observations layout. Learn more.

38.88101, -77.10428

Hourly Observations for January 28, 2017

Temp ( °F °C ) Dew Point ( °F °C ) Humidity (%) Winds ( mph kmh ) Pressure ( in mb ) Visibility ( mi km ) Precip ( " mm )
12:52 am 00:52 Cloudy 38 3.3 17 -8.3 43 43 W 13 20 29.82 1010 10 16.0934 0 0
1:52 am 01:52 Mostly Cloudy 37 2.8 17 -8.3 44 44 WSW 9 15 29.81 1010 10 16.0934 0 0
2:52 am 02:52 Mostly Clear 35 1.7 18 -7.8 50 50 SW 7 11 29.8 1009 10 16.0934 0 0
3:52 am 03:52 Partly Cloudy 33 0.6 19 -7.2 56 56 SW 6 9 29.8 1009 10 16.0934 0 0
4:52 am 04:52 Cloudy 34 1.1 20 -6.7 56 56 SW 7 11 29.8 1009 10 16.0934 0 0
5:52 am 05:52 Cloudy 35 1.7 18 -7.8 50 50 SW 9 15 29.8 1009 10 16.0934 0 0
6:52 am 06:52 Mostly Cloudy 34 1.1 19 -7.2 54 54 SW 8 13 29.82 1010 10 16.0934 0 0
7:52 am 07:52 Cloudy 35 1.7 19 -7.2 52 52 SW 7 11 29.82 1010 10 16.0934 0 0
8:52 am 08:52 Cloudy 35 1.7 19 -7.2 52 52 SW 9 15 29.83 1010 10 16.0934 0 0
9:52 am 09:52 Cloudy 37 2.8 20 -6.7 50 50 SW 8 13 29.83 1010 10 16.0934 0 0
10:52 am 10:52 Cloudy 39 3.9 22 -5.6 50 50 S 8 13 29.83 1010 10 16.0934 0 0
11:52 am 11:52 Mostly Cloudy 42 5.6 21 -6.1 43 43 WSW 8 13 29.8 1009 10 16.0934 0 0
12:52 pm 12:52 Mostly Cloudy 46 7.8 22 -5.6 38 38 WSW 9 15 29.78 1008 10 16.0934 0 0
1:52 pm 13:52 Mostly Cloudy 47 8.3 21 -6.1 36 36 W 10 17 29.75 1007 10 16.0934 0 0
2:52 pm 14:52 Partly Cloudy 49 9.4 21 -6.1 33 33 WSW 12 19 29.73 1007 10 16.0934 0 0
3:52 pm 15:52 Partly Cloudy 49 9.4 20 -6.7 32 32 VRB 7 11 29.72 1007 10 16.0934 0 0
4:52 pm 16:52 Mostly Sunny 47 8.3 19 -7.2 33 33 SW 10 17 29.72 1007 10 16.0934 0 0
5:52 pm 17:52 Mostly Clear 46 7.8 20 -6.7 35 35 SSW 10 17 29.74 1007 10 16.0934 0 0
6:52 pm 18:52 Mostly Clear 42 5.6 24 -4.4 49 49 S 9 15 29.76 1008 10 16.0934 0 0
7:52 pm 19:52 Mostly Clear 44 6.7 21 -6.1 40 40 WNW 8 13 29.78 1008 10 16.0934 0 0
8:52 pm 20:52 Mostly Clear 40 4.4 20 -6.7 45 45 NW 9 15 29.79 1009 10 16.0934 0 0
9:52 pm 21:52 Partly Cloudy 40 4.4 23 -5 51 51 S 3 6 29.78 1009 10 16.0934 0 0
10:52 pm 22:52 Mostly Clear 38 3.3 26 -3.3 62 62 Calm 29.77 1008 10 16.0934 0 0
11:52 pm 23:52 Partly Cloudy 37 2.8 25 -3.9 62 62 SW 5 7 29.77 1008 10 16.0934 0 0

Powered by AerisWeather